createdAt,value
2022-08-19T00:01:28.654Z,58.44
2022-08-19T00:03:56.365Z,58.76
2022-08-19T00:06:22.926Z,58.78
2022-08-19T00:08:49.447Z,58.98
2022-08-19T00:11:18.674Z,58.89
2022-08-19T00:13:52.572Z,59.25
2022-08-19T00:16:19.559Z,59.38
2022-08-19T00:18:53.965Z,59.66
2022-08-19T00:21:20.432Z,59.79
2022-08-19T00:23:46.882Z,59.78
2022-08-19T00:26:13.496Z,60.05
2022-08-19T00:28:40.119Z,60.21
2022-08-19T00:31:09.416Z,60.08
2022-08-19T00:33:36.362Z,60.23
2022-08-19T00:36:07.711Z,60.16
2022-08-19T00:38:38.043Z,60.25
2022-08-19T00:41:05.444Z,60.51
2022-08-19T00:43:31.881Z,60.55
2022-08-19T00:45:58.424Z,60.35
2022-08-19T00:48:24.941Z,60.58
2022-08-19T00:50:53.067Z,60.63
2022-08-19T00:53:23.694Z,60.77
2022-08-19T00:55:54.172Z,60.75
2022-08-19T00:58:22.765Z,60.70
2022-08-19T01:00:49.401Z,60.72
2022-08-19T01:03:19.165Z,60.75
2022-08-19T01:05:48.061Z,60.71
2022-08-19T01:08:16.326Z,60.52
2022-08-19T01:10:48.047Z,60.39
2022-08-19T01:13:15.295Z,60.58
2022-08-19T01:15:47.118Z,60.44
2022-08-19T01:18:16.041Z,60.44
2022-08-19T01:20:43.241Z,60.47
2022-08-19T01:23:12.524Z,60.50
2022-08-19T01:25:45.667Z,60.41
2022-08-19T01:28:16.852Z,60.41
2022-08-19T01:30:44.440Z,60.34
2022-08-19T01:33:17.418Z,60.43
2022-08-19T01:35:44.090Z,60.25
2022-08-19T01:38:23.247Z,60.24
2022-08-19T01:40:51.410Z,60.26
2022-08-19T01:43:18.031Z,60.41
2022-08-19T01:45:44.500Z,60.46
2022-08-19T01:48:11.001Z,60.28
2022-08-19T01:50:37.874Z,60.25
2022-08-19T01:53:07.853Z,60.17
2022-08-19T01:55:41.087Z,60.32
2022-08-19T01:58:11.586Z,60.25
2022-08-19T02:00:38.037Z,60.22
2022-08-19T02:03:04.529Z,60.24
2022-08-19T02:05:31.239Z,60.35
2022-08-19T02:07:58.027Z,60.30
2022-08-19T02:10:24.882Z,60.35
2022-08-19T02:12:52.873Z,60.31
2022-08-19T02:15:20.801Z,60.26
2022-08-19T02:17:48.455Z,60.28
2022-08-19T02:20:15.863Z,60.26
2022-08-19T02:22:43.556Z,60.24
2022-08-19T02:25:11.175Z,60.24
2022-08-19T02:27:37.942Z,60.32
2022-08-19T02:30:08.338Z,60.31
2022-08-19T02:32:44.721Z,60.27
2022-08-19T02:35:12.757Z,60.06
2022-08-19T02:37:39.582Z,60.22
2022-08-19T02:40:12.311Z,60.23
2022-08-19T02:42:39.524Z,60.20
2022-08-19T02:45:07.836Z,60.38
2022-08-19T02:47:34.913Z,60.28
2022-08-19T02:50:02.415Z,60.19
2022-08-19T02:52:28.971Z,60.10
2022-08-19T02:54:55.470Z,60.19
2022-08-19T02:57:21.928Z,60.28
2022-08-19T02:59:48.521Z,60.21
2022-08-19T03:02:16.293Z,60.29
2022-08-19T03:04:43.076Z,60.29
2022-08-19T03:07:10.850Z,60.33
2022-08-19T03:09:38.666Z,60.33
2022-08-19T03:12:05.758Z,60.43
2022-08-19T03:14:32.646Z,60.36
2022-08-19T03:16:59.285Z,60.51
2022-08-19T03:19:27.482Z,60.40
2022-08-19T03:21:54.302Z,60.63
2022-08-19T03:24:21.308Z,60.63
2022-08-19T03:26:50.552Z,60.57
2022-08-19T03:29:30.133Z,60.49
2022-08-19T03:31:58.222Z,60.70
2022-08-19T03:34:27.744Z,60.78
2022-08-19T03:36:55.484Z,60.68
2022-08-19T03:39:22.627Z,60.79
2022-08-19T03:42:32.824Z,60.88
2022-08-19T03:44:39.938Z,61.01
2022-08-19T03:47:06.800Z,61.13
2022-08-19T03:49:34.679Z,60.85
2022-08-19T03:52:01.469Z,60.83
2022-08-19T03:54:28.632Z,60.99
2022-08-19T03:56:56.677Z,61.15
2022-08-19T03:59:26.251Z,61.29
2022-08-19T04:01:53.384Z,61.32
2022-08-19T04:04:20.132Z,61.32
2022-08-19T04:06:48.578Z,61.28
2022-08-19T04:09:15.405Z,61.37
2022-08-19T04:11:44.986Z,61.34
2022-08-19T04:14:13.492Z,61.32
2022-08-19T04:16:40.084Z,61.38
2022-08-19T04:19:07.216Z,61.46
2022-08-19T04:21:34.671Z,61.53
2022-08-19T04:24:04.194Z,61.64
2022-08-19T04:26:34.088Z,61.83
2022-08-19T04:29:01.289Z,61.82
2022-08-19T04:31:29.823Z,61.85
2022-08-19T04:33:58.001Z,61.89
2022-08-19T04:36:27.148Z,62.21
2022-08-19T04:38:55.111Z,62.18
2022-08-19T04:41:23.568Z,62.18
2022-08-19T04:43:50.026Z,62.36
2022-08-19T04:46:28.507Z,62.27
2022-08-19T04:49:05.670Z,62.49
2022-08-19T04:51:42.141Z,62.47
2022-08-19T04:54:08.725Z,62.47
2022-08-19T04:56:36.493Z,62.51
2022-08-19T04:59:03.124Z,62.57
2022-08-19T05:01:31.809Z,62.67
2022-08-19T05:03:58.736Z,62.62
2022-08-19T05:06:25.326Z,62.62
2022-08-19T05:08:51.953Z,62.64
2022-08-19T05:11:25.891Z,62.82
2022-08-19T05:13:54.843Z,62.84
2022-08-19T05:16:22.906Z,63.02
2022-08-19T05:18:49.516Z,63.03
2022-08-19T05:21:19.767Z,62.99
2022-08-19T05:23:46.251Z,63.10
2022-08-19T05:26:12.746Z,63.21
2022-08-19T05:28:39.202Z,63.16
2022-08-19T05:31:06.905Z,63.30
2022-08-19T05:33:33.397Z,63.33
2022-08-19T05:35:59.863Z,63.42
2022-08-19T05:38:26.455Z,63.18
2022-08-19T05:40:52.952Z,63.41
2022-08-19T05:43:19.416Z,63.42
2022-08-19T05:45:46.009Z,63.49
2022-08-19T05:48:14.450Z,63.28
2022-08-19T05:50:42.452Z,63.58
2022-08-19T05:53:08.973Z,63.45
2022-08-19T05:55:35.671Z,63.75
2022-08-19T05:58:02.137Z,63.62
2022-08-19T06:00:28.630Z,63.84
2022-08-19T06:02:55.330Z,63.66
2022-08-19T06:05:23.239Z,63.88
2022-08-19T06:07:49.726Z,63.65
2022-08-19T06:10:16.431Z,63.73
2022-08-19T06:12:42.871Z,63.93
2022-08-19T06:15:12.852Z,63.82
2022-08-19T06:17:39.872Z,63.83
2022-08-19T06:20:09.077Z,63.66
2022-08-19T06:22:40.273Z,63.85
2022-08-19T06:25:07.580Z,64.05
2022-08-19T06:27:34.082Z,64.07
2022-08-19T06:30:01.264Z,64.09
2022-08-19T06:32:27.842Z,64.09
2022-08-19T06:34:54.285Z,64.15
2022-08-19T06:37:20.748Z,64.17
2022-08-19T06:39:50.372Z,64.14
2022-08-19T06:42:17.703Z,64.18
2022-08-19T06:44:48.909Z,64.22
2022-08-19T06:47:23.972Z,64.27
2022-08-19T06:49:54.333Z,64.28
2022-08-19T06:52:20.970Z,64.13
2022-08-19T06:54:55.754Z,64.18
2022-08-19T06:57:23.179Z,64.28
2022-08-19T06:59:49.644Z,64.25
2022-08-19T07:04:47.671Z,64.42
2022-08-19T07:07:19.718Z,64.55
2022-08-19T07:09:58.287Z,64.49
2022-08-19T07:12:31.166Z,64.47
2022-08-19T07:14:58.443Z,64.65
2022-08-19T07:17:25.077Z,64.72
2022-08-19T07:19:51.868Z,64.60
2022-08-19T07:22:22.347Z,64.71
2022-08-19T07:24:51.480Z,64.58
2022-08-19T07:27:18.585Z,64.39
2022-08-19T07:29:55.768Z,64.72
2022-08-19T07:32:23.401Z,64.79
2022-08-19T07:34:49.849Z,64.46
2022-08-19T07:37:17.096Z,64.61
2022-08-19T07:39:43.691Z,64.55
2022-08-19T07:42:11.259Z,64.49
2022-08-19T07:47:49.300Z,64.33
2022-08-19T07:50:00.503Z,64.52
2022-08-19T07:52:27.102Z,64.38
2022-08-19T07:54:53.545Z,64.51
2022-08-19T07:57:19.976Z,64.45
2022-08-19T07:59:46.467Z,64.31
2022-08-19T08:02:14.245Z,64.20
2022-08-19T08:04:40.888Z,64.24
2022-08-19T08:07:07.882Z,64.11
2022-08-19T08:09:39.304Z,64.02
2022-08-19T08:12:30.718Z,64.07
2022-08-19T08:14:59.444Z,63.87
2022-08-19T08:17:31.032Z,64.11
2022-08-19T08:20:15.973Z,63.96
2022-08-19T08:22:44.438Z,63.96
2022-08-19T08:25:14.577Z,63.51
2022-08-19T08:27:44.641Z,63.81
2022-08-19T08:30:15.253Z,63.89
2022-08-19T08:32:43.876Z,63.87
2022-08-19T08:35:15.516Z,63.87
2022-08-19T08:37:42.056Z,63.91
2022-08-19T08:40:22.121Z,63.76
2022-08-19T08:42:54.802Z,63.84
2022-08-19T08:45:22.042Z,63.92
2022-08-19T08:47:53.368Z,63.93
2022-08-19T08:50:26.516Z,63.78
2022-08-19T08:52:57.055Z,64.22
2022-08-19T08:55:25.979Z,64.16
2022-08-19T08:57:56.402Z,64.36
2022-08-19T09:00:25.773Z,64.18
2022-08-19T09:02:53.954Z,64.57
2022-08-19T09:05:22.781Z,64.86
2022-08-19T09:08:01.373Z,65.00
2022-08-19T09:10:32.714Z,65.06
2022-08-19T09:13:13.672Z,65.23
2022-08-19T09:15:44.786Z,65.27
2022-08-19T09:18:15.331Z,65.08
2022-08-19T09:20:47.012Z,65.41
2022-08-19T09:23:13.636Z,65.08
2022-08-19T09:25:40.162Z,65.38
2022-08-19T09:28:12.714Z,65.61
2022-08-19T09:30:48.837Z,65.69
2022-08-19T09:33:16.581Z,65.47
2022-08-19T09:35:49.468Z,65.49
2022-08-19T09:38:19.387Z,65.82
2022-08-19T09:40:45.871Z,65.73
2022-08-19T09:43:13.420Z,66.03
2022-08-19T09:45:40.538Z,66.19
2022-08-19T09:48:07.013Z,65.83
2022-08-19T09:50:34.811Z,65.78
2022-08-19T09:53:01.480Z,65.99
2022-08-19T09:55:31.466Z,65.91
2022-08-19T09:57:59.037Z,66.20
2022-08-19T10:00:25.530Z,66.32
2022-08-19T10:02:51.996Z,66.27
2022-08-19T10:05:26.660Z,66.18
2022-08-19T10:07:55.083Z,66.32
2022-08-19T10:10:23.633Z,66.27
2022-08-19T10:12:51.145Z,66.40
2022-08-19T10:15:17.767Z,66.20
2022-08-19T10:17:55.843Z,66.68
2022-08-19T10:20:22.362Z,66.23
2022-08-19T10:22:48.860Z,67.31
2022-08-19T10:25:21.081Z,67.62
2022-08-19T10:27:51.138Z,68.63
2022-08-19T10:30:18.299Z,68.49
2022-08-19T10:32:47.028Z,68.95
2022-08-19T10:35:16.058Z,68.80
2022-08-19T10:38:01.842Z,69.06
2022-08-19T10:40:30.239Z,68.62
2022-08-19T10:42:56.810Z,68.53
2022-08-19T10:45:24.068Z,68.35
2022-08-19T10:47:50.535Z,68.65
2022-08-19T10:50:17.246Z,68.91
2022-08-19T10:52:48.980Z,69.04
2022-08-19T10:55:17.828Z,68.86
2022-08-19T10:58:01.682Z,69.33
2022-08-19T11:00:28.761Z,69.55
2022-08-19T11:02:55.221Z,70.00
2022-08-19T11:05:21.682Z,69.78
2022-08-19T11:07:51.291Z,69.94
2022-08-19T11:10:21.369Z,70.10
2022-08-19T11:12:50.325Z,70.38
2022-08-19T11:15:16.913Z,70.13
2022-08-19T11:17:43.704Z,70.37
2022-08-19T11:20:12.076Z,70.22
2022-08-19T11:22:41.456Z,70.12
2022-08-19T11:25:10.277Z,70.28
2022-08-19T11:27:39.598Z,70.24
2022-08-19T11:30:08.792Z,70.39
2022-08-19T11:32:42.546Z,70.13
2022-08-19T11:35:11.232Z,70.25
2022-08-19T11:37:37.727Z,70.59
2022-08-19T11:40:05.736Z,70.56
2022-08-19T11:42:32.291Z,70.81
2022-08-19T11:44:59.090Z,71.15
2022-08-19T11:47:26.871Z,70.82
2022-08-19T11:49:53.482Z,71.16
2022-08-19T11:52:20.023Z,71.13
2022-08-19T11:54:46.536Z,71.12
2022-08-19T11:57:13.054Z,71.18
2022-08-19T11:59:39.524Z,71.45
2022-08-19T12:02:06.540Z,71.27
2022-08-19T12:04:35.383Z,71.18
2022-08-19T12:07:01.844Z,71.22
2022-08-19T12:09:28.389Z,71.19
2022-08-19T12:11:57.579Z,71.38
2022-08-19T12:14:24.142Z,71.50
2022-08-19T12:16:52.288Z,71.30
2022-08-19T12:19:21.784Z,71.07
2022-08-19T12:21:51.713Z,71.52
2022-08-19T12:24:18.566Z,71.30
2022-08-19T12:26:52.886Z,71.35
2022-08-19T12:29:23.600Z,71.44
2022-08-19T12:31:50.923Z,71.51
2022-08-19T12:34:17.386Z,71.75
2022-08-19T12:36:43.885Z,71.90
2022-08-19T12:39:11.730Z,71.88
2022-08-19T12:41:47.549Z,72.00
2022-08-19T12:44:20.945Z,72.14
2022-08-19T12:46:55.629Z,72.20
2022-08-19T12:49:51.913Z,71.91
2022-08-19T12:52:09.763Z,72.31
2022-08-19T12:54:38.618Z,72.45
2022-08-19T12:57:06.643Z,72.29
2022-08-19T12:59:33.127Z,72.11
2022-08-19T13:01:59.594Z,72.18
2022-08-19T13:04:26.045Z,72.62
2022-08-19T13:06:52.785Z,72.41
2022-08-19T13:09:19.278Z,72.70
2022-08-19T13:11:47.082Z,72.67
2022-08-19T13:14:13.614Z,72.74
2022-08-19T13:16:40.106Z,73.00
2022-08-19T13:19:06.708Z,72.83
2022-08-19T13:21:33.224Z,72.88
2022-08-19T13:23:59.858Z,72.72
2022-08-19T13:26:26.362Z,72.53
2022-08-19T13:28:54.121Z,72.19
2022-08-19T13:31:23.246Z,72.17
2022-08-19T13:33:49.701Z,72.11
2022-08-19T13:36:16.095Z,72.01
2022-08-19T13:38:42.867Z,71.59
2022-08-19T13:41:13.303Z,71.34
2022-08-19T13:43:41.313Z,71.14
2022-08-19T13:46:12.198Z,71.16
2022-08-19T13:48:38.676Z,71.07
2022-08-19T13:51:06.264Z,70.83
2022-08-19T13:53:32.797Z,70.79
2022-08-19T13:55:59.256Z,70.84
2022-08-19T13:58:25.727Z,70.64
2022-08-19T14:00:52.287Z,70.31
2022-08-19T14:03:20.194Z,69.83
2022-08-19T14:05:46.818Z,69.46
2022-08-19T14:08:13.272Z,68.64
2022-08-19T14:10:40.072Z,67.61
2022-08-19T14:13:06.577Z,67.20
2022-08-19T14:15:33.258Z,66.94
2022-08-19T14:17:59.884Z,66.65
2022-08-19T14:20:28.086Z,66.38
2022-08-19T14:22:55.467Z,66.16
2022-08-19T14:25:24.339Z,65.92
2022-08-19T14:27:51.348Z,65.89
2022-08-19T14:30:21.895Z,65.89
2022-08-19T14:32:48.633Z,65.67
2022-08-19T14:35:16.784Z,65.28
2022-08-19T14:37:46.287Z,65.40
2022-08-19T14:40:15.440Z,65.28
2022-08-19T14:42:42.632Z,64.91
2022-08-19T14:45:09.934Z,64.87
2022-08-19T14:47:36.398Z,64.96
2022-08-19T14:50:07.802Z,64.89
2022-08-19T14:52:37.513Z,64.69
2022-08-19T14:55:08.436Z,64.67
2022-08-19T14:57:34.944Z,64.55
2022-08-19T15:00:01.588Z,64.47
2022-08-19T15:02:34.957Z,64.54
2022-08-19T15:05:01.805Z,64.80
2022-08-19T15:07:29.080Z,64.78
2022-08-19T15:09:56.973Z,64.87
2022-08-19T15:12:25.286Z,64.89
2022-08-19T15:14:55.136Z,65.06
2022-08-19T15:17:25.771Z,65.37
2022-08-19T15:20:12.328Z,65.18
2022-08-19T15:22:38.978Z,65.15
2022-08-19T15:25:08.067Z,65.23
2022-08-19T15:27:36.288Z,65.23
2022-08-19T15:30:03.448Z,65.30
2022-08-19T15:32:30.486Z,65.29
2022-08-19T15:34:56.974Z,65.51
2022-08-19T15:37:23.557Z,65.32
2022-08-19T15:39:50.126Z,65.25
2022-08-19T15:42:17.048Z,65.03
2022-08-19T15:45:00.458Z,64.96
2022-08-19T15:47:29.381Z,64.80
2022-08-19T15:50:01.732Z,64.52
2022-08-19T15:52:28.320Z,64.61
2022-08-19T15:54:54.805Z,64.40
2022-08-19T15:57:21.294Z,64.12
2022-08-19T15:59:47.995Z,64.26
2022-08-19T16:02:16.444Z,63.89
2022-08-19T16:04:43.027Z,63.83
2022-08-19T16:07:09.481Z,63.73
2022-08-19T16:09:36.101Z,63.01
2022-08-19T16:12:05.087Z,62.92
2022-08-19T16:14:33.125Z,62.76
2022-08-19T16:16:59.792Z,62.67
2022-08-19T16:19:27.804Z,62.55
2022-08-19T16:21:56.219Z,62.61
2022-08-19T16:24:26.572Z,62.19
2022-08-19T16:26:53.780Z,62.44
2022-08-19T16:29:27.738Z,62.36
2022-08-19T16:32:02.840Z,61.87
2022-08-19T16:34:31.206Z,61.59
2022-08-19T16:36:57.769Z,61.47
2022-08-19T16:39:24.694Z,61.37
2022-08-19T16:41:51.344Z,60.86
2022-08-19T16:44:19.649Z,60.20
2022-08-19T16:46:46.548Z,60.34
2022-08-19T16:49:22.672Z,60.02
2022-08-19T16:52:10.021Z,59.42
2022-08-19T16:54:37.575Z,59.10
2022-08-19T16:57:05.113Z,58.46
2022-08-19T16:59:31.559Z,58.46
2022-08-19T17:01:58.057Z,57.99
2022-08-19T17:04:24.523Z,57.48
2022-08-19T17:06:51.068Z,56.42
2022-08-19T17:09:18.807Z,56.76
2022-08-19T17:11:52.824Z,56.22
2022-08-19T17:14:19.293Z,56.50
2022-08-19T17:16:45.789Z,56.16
2022-08-19T17:19:12.258Z,56.05
2022-08-19T17:21:39.170Z,55.93
2022-08-19T17:24:06.764Z,54.80
2022-08-19T17:26:35.630Z,54.61
2022-08-19T17:29:02.279Z,54.75
2022-08-19T17:31:31.193Z,54.73
2022-08-19T17:33:58.841Z,54.62
2022-08-19T17:36:26.910Z,54.73
2022-08-19T17:38:55.146Z,54.63
2022-08-19T17:41:21.647Z,54.42
2022-08-19T17:43:49.493Z,54.11
2022-08-19T17:46:17.732Z,54.38
2022-08-19T17:48:50.788Z,54.13
2022-08-19T17:51:22.001Z,53.74
2022-08-19T17:53:49.642Z,52.78
2022-08-19T17:56:16.316Z,52.35
2022-08-19T17:58:43.327Z,52.45
2022-08-19T18:01:16.476Z,51.20
2022-08-19T18:03:46.930Z,51.26
2022-08-19T18:06:14.540Z,51.12
2022-08-19T18:08:41.185Z,51.34
2022-08-19T18:11:08.863Z,50.51
2022-08-19T18:13:35.648Z,51.05
2022-08-19T18:16:03.023Z,51.25
2022-08-19T18:18:30.771Z,50.58
2022-08-19T18:20:57.223Z,50.35
2022-08-19T18:23:44.055Z,50.79
2022-08-19T18:26:10.834Z,50.27
2022-08-19T18:28:37.461Z,50.85
2022-08-19T18:31:03.925Z,50.34
2022-08-19T18:33:31.739Z,50.87
2022-08-19T18:35:58.194Z,50.92
2022-08-19T18:38:24.593Z,50.87
2022-08-19T18:40:51.110Z,50.88
2022-08-19T18:43:17.542Z,51.03
2022-08-19T18:45:44.140Z,51.09
2022-08-19T18:48:26.329Z,50.90
2022-08-19T18:50:56.707Z,51.38
2022-08-19T18:53:23.239Z,51.24
2022-08-19T18:55:49.736Z,51.26
2022-08-19T18:58:16.321Z,51.51
2022-08-19T19:00:42.847Z,51.41
2022-08-19T19:03:09.352Z,51.41
2022-08-19T19:05:35.812Z,51.54
2022-08-19T19:08:03.633Z,51.70
2022-08-19T19:10:30.164Z,51.78
2022-08-19T19:12:56.648Z,51.90
2022-08-19T19:15:23.192Z,51.97
2022-08-19T19:17:49.669Z,52.01
2022-08-19T19:20:16.357Z,52.07
2022-08-19T19:22:42.845Z,52.24
2022-08-19T19:25:10.566Z,52.37
2022-08-19T19:27:38.027Z,52.56
2022-08-19T19:30:05.007Z,52.57
2022-08-19T19:32:33.824Z,52.69
2022-08-19T19:35:03.480Z,52.65
2022-08-19T19:37:29.951Z,52.72
2022-08-19T19:39:56.509Z,52.73
2022-08-19T19:42:24.314Z,52.73
2022-08-19T19:44:54.126Z,52.92
2022-08-19T19:47:21.277Z,52.90
2022-08-19T19:50:12.752Z,53.14
2022-08-19T19:52:34.759Z,53.17
2022-08-19T19:55:01.428Z,53.35
2022-08-19T19:57:29.360Z,53.19
2022-08-19T19:59:56.064Z,53.45
2022-08-19T20:02:22.591Z,53.51
2022-08-19T20:04:49.161Z,53.50
2022-08-19T20:07:15.651Z,53.59
2022-08-19T20:09:58.859Z,53.75
2022-08-19T20:12:26.046Z,53.72
2022-08-19T20:14:53.773Z,53.77
2022-08-19T20:17:20.222Z,54.02
2022-08-19T20:19:46.676Z,53.92
2022-08-19T20:22:13.138Z,54.24
2022-08-19T20:24:39.709Z,54.24
2022-08-19T20:27:06.168Z,54.32
2022-08-19T20:29:38.895Z,54.25
2022-08-19T20:32:10.499Z,54.46
2022-08-19T20:34:37.070Z,54.52
2022-08-19T20:37:03.694Z,54.60
2022-08-19T20:39:30.392Z,54.59
2022-08-19T20:41:56.907Z,54.71
2022-08-19T20:44:23.669Z,54.76
2022-08-19T20:46:54.701Z,54.74
2022-08-19T20:49:27.088Z,54.88
2022-08-19T20:51:54.366Z,54.78
2022-08-19T20:54:21.052Z,54.93
2022-08-19T20:56:47.555Z,54.97
2022-08-19T20:59:13.982Z,54.98
2022-08-19T21:01:40.464Z,54.89
2022-08-19T21:04:06.919Z,54.90
2022-08-19T21:06:34.757Z,55.14
2022-08-19T21:09:01.243Z,55.11
2022-08-19T21:11:27.769Z,55.27
2022-08-19T21:13:54.277Z,55.15
2022-08-19T21:16:20.752Z,55.19
2022-08-19T21:18:47.195Z,55.20
2022-08-19T21:21:13.847Z,55.19
2022-08-19T21:23:42.030Z,55.18
2022-08-19T21:26:09.014Z,55.45
2022-08-19T21:28:36.597Z,55.27
2022-08-19T21:31:05.455Z,55.31
2022-08-19T21:33:32.262Z,55.34
2022-08-19T21:35:59.467Z,55.31
2022-08-19T21:38:26.120Z,55.41
2022-08-19T21:40:54.218Z,55.51
2022-08-19T21:43:20.870Z,55.65
2022-08-19T21:45:47.757Z,55.53
2022-08-19T21:48:15.040Z,55.55
2022-08-19T21:50:42.244Z,55.59
2022-08-19T21:53:08.697Z,55.65
2022-08-19T21:55:38.970Z,55.61
2022-08-19T21:58:06.734Z,55.59
2022-08-19T22:00:33.959Z,55.71
2022-08-19T22:03:02.937Z,55.74
2022-08-19T22:05:29.620Z,55.85
2022-08-19T22:07:58.111Z,55.75
2022-08-19T22:10:28.111Z,55.70
2022-08-19T22:12:55.517Z,55.79
2022-08-19T22:15:25.339Z,55.85
2022-08-19T22:17:51.907Z,55.97
2022-08-19T22:20:21.521Z,55.98
2022-08-19T22:22:50.239Z,55.88
2022-08-19T22:25:31.242Z,55.88
2022-08-19T22:28:00.625Z,55.79
2022-08-19T22:30:33.684Z,55.64
2022-08-19T22:33:02.323Z,55.68
2022-08-19T22:35:31.388Z,55.54
2022-08-19T22:37:58.291Z,55.54
2022-08-19T22:40:25.380Z,55.44
2022-08-19T22:42:57.768Z,55.29
2022-08-19T22:45:24.351Z,55.15
2022-08-19T22:47:52.160Z,55.10
2022-08-19T22:50:18.813Z,55.11
2022-08-19T22:52:51.659Z,54.88
2022-08-19T22:55:18.961Z,54.91
2022-08-19T22:57:45.428Z,55.12
2022-08-19T23:00:12.710Z,54.86
2022-08-19T23:02:39.311Z,54.76
2022-08-19T23:05:22.400Z,54.63
2022-08-19T23:07:52.558Z,54.48
2022-08-19T23:10:27.613Z,54.40
2022-08-19T23:12:57.074Z,54.52
2022-08-19T23:15:29.194Z,54.25
2022-08-19T23:17:58.596Z,54.16
2022-08-19T23:20:28.871Z,54.22
2022-08-19T23:22:56.727Z,53.95
2022-08-19T23:25:27.462Z,53.95
2022-08-19T23:27:54.731Z,54.08
2022-08-19T23:30:21.311Z,54.05
2022-08-19T23:32:47.804Z,54.14
2022-08-19T23:35:14.368Z,54.12
2022-08-19T23:37:42.168Z,54.19
2022-08-19T23:40:09.619Z,54.19
2022-08-19T23:42:40.266Z,54.01
2022-08-19T23:45:08.223Z,53.93
2022-08-19T23:47:37.212Z,53.82
2022-08-19T23:50:08.981Z,53.86
2022-08-19T23:52:45.539Z,53.82
2022-08-19T23:55:12.685Z,53.92
2022-08-19T23:57:39.213Z,53.99
